Time;durP1;ratioP1;P1;durP2;ratioP2;P2;SDS_P1;SDS_P2;PMS_P1;PMS_P2;Temp;Humidity;BMP_temperature;BMP_pressure;BME280_temperature;BME280_humidity;BME280_pressure;Samples;Min_cycle;Max_cycle;Signal;HPM_P1;HPM_P2
2023/03/30 00:02:29;;;;;;;7.35;4.65;;;8.90;91.20;;;;;;5038405;28;20067;-70
2023/03/30 00:04:55;;;;;;;8.23;4.63;;;8.80;92.20;;;;;;5019856;28;20033;-69
2023/03/30 00:07:21;;;;;;;8.25;5.03;;;8.80;93.10;;;;;;5023371;28;20039;-70
2023/03/30 00:09:46;;;;;;;6.43;4.63;;;8.80;92.40;;;;;;5032796;28;20112;-71
2023/03/30 00:12:14;;;;;;;6.53;4.20;;;8.70;96.10;;;;;;5032326;28;20037;-70
2023/03/30 00:14:41;;;;;;;7.60;3.92;;;8.70;94.90;;;;;;5030615;28;20021;-70
2023/03/30 00:17:08;;;;;;;6.93;4.35;;;8.70;99.00;;;;;;5027367;28;20033;-71
2023/03/30 00:19:37;;;;;;;7.57;4.53;;;8.70;98.10;;;;;;5033945;28;20099;-70
2023/03/30 00:22:04;;;;;;;8.38;4.47;;;8.60;99.20;;;;;;5033231;28;20036;-70
2023/03/30 00:24:30;;;;;;;9.20;5.70;;;8.60;98.40;;;;;;5037539;28;20029;-70
2023/03/30 00:26:55;;;;;;;9.35;5.40;;;8.60;99.10;;;;;;5024940;28;20045;-71
2023/03/30 00:29:21;;;;;;;8.50;4.45;;;8.60;97.70;;;;;;5037702;28;20033;-70
2023/03/30 00:31:46;;;;;;;7.57;4.55;;;8.50;99.90;;;;;;5033807;28;20600;-71
2023/03/30 00:34:12;;;;;;;7.63;4.72;;;8.50;99.90;;;;;;5031444;28;20033;-71
2023/03/30 00:36:37;;;;;;;10.57;4.80;;;8.50;99.90;;;;;;5043798;28;20730;-70
2023/03/30 00:39:05;;;;;;;8.48;5.75;;;8.50;99.90;;;;;;5036532;28;20033;-71
2023/03/30 00:41:32;;;;;;;7.75;4.30;;;8.40;99.90;;;;;;5022150;28;20117;-69
2023/03/30 00:44:06;;;;;;;7.55;4.95;;;8.40;99.90;;;;;;5038370;28;20033;-70
2023/03/30 00:46:32;;;;;;;8.88;5.35;;;8.40;99.90;;;;;;5017335;28;20436;-70
2023/03/30 00:49:07;;;;;;;10.25;5.13;;;8.40;99.90;;;;;;5030728;28;20299;-70
2023/03/30 00:51:39;;;;;;;6.45;4.38;;;8.30;99.90;;;;;;5029019;28;20036;-69
2023/03/30 00:54:15;;;;;;;8.73;5.30;;;8.30;99.90;;;;;;5011329;28;20382;-69
2023/03/30 00:56:41;;;;;;;8.95;5.22;;;8.30;99.90;;;;;;5017921;28;20041;-70
2023/03/30 00:59:07;;;;;;;6.82;4.70;;;8.20;99.90;;;;;;5034800;28;20036;-70
2023/03/30 01:01:37;;;;;;;9.27;4.55;;;8.20;99.90;;;;;;5029122;28;20056;-69
2023/03/30 01:04:04;;;;;;;6.90;4.78;;;8.20;99.90;;;;;;5037626;28;20080;-70
2023/03/30 01:06:31;;;;;;;9.68;5.07;;;8.20;99.90;;;;;;5026232;28;20123;-70
2023/03/30 01:08:57;;;;;;;9.60;5.05;;;8.20;99.90;;;;;;5027029;28;20032;-71
2023/03/30 01:11:25;;;;;;;10.55;5.22;;;8.20;99.90;;;;;;5027069;28;20080;-70
2023/03/30 01:13:54;;;;;;;10.32;6.25;;;8.20;99.90;;;;;;5042499;28;20060;-70
2023/03/30 01:16:51;;;;;;;10.65;4.93;;;8.20;99.90;;;;;;5041959;28;20036;-70
2023/03/30 01:19:30;;;;;;;10.27;5.70;;;8.10;99.90;;;;;;5027894;28;20029;-71
2023/03/30 01:22:15;;;;;;;9.95;6.47;;;8.10;99.90;;;;;;5019768;28;20117;-70
2023/03/30 01:25:01;;;;;;;12.52;6.65;;;8.10;99.90;;;;;;5014671;28;20549;-70
2023/03/30 01:28:07;;;;;;;9.98;7.03;;;8.10;99.90;;;;;;5023926;28;20064;-71
2023/03/30 01:31:02;;;;;;;9.10;5.55;;;8.10;99.90;;;;;;5009446;28;20044;-70
2023/03/30 01:34:04;;;;;;;9.82;5.95;;;8.10;99.90;;;;;;5023176;28;20041;-70
2023/03/30 01:36:45;;;;;;;11.90;6.90;;;8.00;99.90;;;;;;5026906;28;20049;-69
2023/03/30 01:39:28;;;;;;;11.90;7.07;;;8.00;99.90;;;;;;5028575;28;20056;-70
2023/03/30 01:42:29;;;;;;;11.73;7.38;;;8.00;99.90;;;;;;5020745;28;20513;-70
2023/03/30 01:45:11;;;;;;;12.82;6.82;;;8.00;99.90;;;;;;5022604;28;20112;-70
2023/03/30 01:47:38;;;;;;;12.40;7.00;;;8.00;99.90;;;;;;5024720;28;20034;-70
2023/03/30 01:50:10;;;;;;;10.02;6.25;;;8.00;99.90;;;;;;5027169;28;20718;-70
2023/03/30 01:52:41;;;;;;;17.13;8.15;;;8.00;99.90;;;;;;5044250;28;20033;-71
2023/03/30 01:55:15;;;;;;;10.77;7.30;;;8.00;99.90;;;;;;5028518;28;20030;-70
2023/03/30 01:57:49;;;;;;;14.93;8.27;;;8.00;99.90;;;;;;5021274;28;20091;-69
2023/03/30 02:00:19;;;;;;;15.18;8.32;;;8.00;99.90;;;;;;5021438;28;20029;-68
2023/03/30 02:02:51;;;;;;;10.38;7.68;;;8.00;99.90;;;;;;5035348;28;20030;-67
2023/03/30 02:05:17;;;;;;;18.08;9.35;;;7.90;99.90;;;;;;5043102;28;20040;-70
2023/03/30 02:07:48;;;;;;;11.75;7.57;;;7.90;99.90;;;;;;5040137;28;20030;-70
2023/03/30 02:10:17;;;;;;;13.95;8.32;;;7.90;99.90;;;;;;5018939;28;20065;-70
2023/03/30 02:12:44;;;;;;;15.85;8.60;;;7.90;99.90;;;;;;5032293;28;20022;-70
2023/03/30 02:15:13;;;;;;;14.32;8.80;;;7.90;99.90;;;;;;5021586;28;20025;-70
2023/03/30 02:17:40;;;;;;;13.55;8.98;;;7.90;99.90;;;;;;5032708;28;20029;-70
2023/03/30 02:20:11;;;;;;;14.80;8.60;;;7.80;99.90;;;;;;5028443;28;20030;-70
2023/03/30 02:22:37;;;;;;;12.18;8.73;;;7.80;99.90;;;;;;5028425;28;20033;-70
2023/03/30 02:25:04;;;;;;;13.70;9.00;;;7.80;99.90;;;;;;5028644;28;20501;-69
2023/03/30 02:27:31;;;;;;;12.02;8.35;;;7.80;99.90;;;;;;5031240;28;20535;-68
2023/03/30 02:29:57;;;;;;;12.45;8.30;;;7.80;99.90;;;;;;5029425;28;20021;-69
2023/03/30 02:32:26;;;;;;;15.52;8.57;;;7.90;99.90;;;;;;5033316;28;20041;-68
2023/03/30 02:35:07;;;;;;;12.45;8.38;;;7.90;99.90;;;;;;5021619;28;20041;-69
2023/03/30 02:38:04;;;;;;;10.85;7.07;;;7.90;99.90;;;;;;5028387;28;20064;-69
2023/03/30 02:40:46;;;;;;;12.18;8.18;;;7.90;99.90;;;;;;5044843;28;20044;-69
2023/03/30 02:43:44;;;;;;;11.68;7.28;;;7.90;99.90;;;;;;5018040;28;20086;-69
2023/03/30 02:46:23;;;;;;;8.93;6.38;;;7.90;99.90;;;;;;5028766;28;20124;-69
2023/03/30 02:48:57;;;;;;;11.45;7.55;;;7.90;99.90;;;;;;5039152;28;20032;-69
2023/03/30 02:51:51;;;;;;;13.63;8.20;;;7.90;99.90;;;;;;5012247;28;20284;-69
2023/03/30 02:54:28;;;;;;;12.43;7.18;;;7.90;99.90;;;;;;5022892;28;20497;-70
2023/03/30 02:57:03;;;;;;;12.23;7.43;;;7.90;99.90;;;;;;5012127;28;20072;-55
2023/03/30 02:59:36;;;;;;;14.13;7.60;;;7.90;99.90;;;;;;5011266;28;20512;-55
2023/03/30 03:02:12;;;;;;;11.73;7.28;;;7.90;99.90;;;;;;5009078;28;20669;-53
2023/03/30 03:04:42;;;;;;;11.98;8.25;;;7.90;99.90;;;;;;5047651;28;20266;-55
2023/03/30 03:07:09;;;;;;;14.25;7.70;;;7.90;99.90;;;;;;5028903;28;20022;-56
2023/03/30 03:09:35;;;;;;;13.32;7.63;;;7.90;99.90;;;;;;5048944;28;20080;-56
2023/03/30 03:12:01;;;;;;;13.73;7.85;;;7.90;99.90;;;;;;5031943;28;20017;-55
2023/03/30 03:14:28;;;;;;;13.55;7.75;;;7.90;99.90;;;;;;5030612;28;20032;-56
2023/03/30 03:16:54;;;;;;;13.13;9.27;;;7.90;99.90;;;;;;5050891;28;20044;-56
2023/03/30 03:19:19;;;;;;;15.73;8.75;;;7.90;99.90;;;;;;5030012;28;20392;-55
2023/03/30 03:21:45;;;;;;;13.45;9.13;;;7.90;99.90;;;;;;5050573;28;20095;-56
2023/03/30 03:24:12;;;;;;;13.75;8.20;;;7.90;99.90;;;;;;5030002;28;20033;-55
2023/03/30 03:26:38;;;;;;;14.75;8.88;;;7.90;99.90;;;;;;5050557;28;20496;-55
2023/03/30 03:29:04;;;;;;;18.70;10.95;;;7.90;99.90;;;;;;5029918;28;20030;-59
2023/03/30 03:31:30;;;;;;;15.27;10.02;;;7.90;99.90;;;;;;5044860;28;20509;-52
2023/03/30 03:33:55;;;;;;;18.40;9.73;;;7.90;99.90;;;;;;5043281;28;20503;-54
2023/03/30 03:36:23;;;;;;;17.70;10.82;;;7.90;99.90;;;;;;5030208;28;20053;-56
2023/03/30 03:38:49;;;;;;;15.95;9.32;;;7.90;99.90;;;;;;5035635;28;20100;-56
2023/03/30 03:41:15;;;;;;;20.92;11.38;;;7.90;99.90;;;;;;5050279;28;20119;-54
2023/03/30 03:43:40;;;;;;;14.43;9.85;;;7.90;99.90;;;;;;5029530;28;20043;-54
2023/03/30 03:46:06;;;;;;;16.63;9.52;;;7.90;99.90;;;;;;5050211;28;20497;-54
2023/03/30 03:48:31;;;;;;;17.30;10.57;;;7.90;99.90;;;;;;5040278;28;20033;-53
2023/03/30 03:50:58;;;;;;;15.43;9.85;;;7.90;99.90;;;;;;5031158;28;20022;-56
2023/03/30 03:53:26;;;;;;;17.27;10.77;;;7.80;99.90;;;;;;5039928;28;20033;-56
2023/03/30 03:55:52;;;;;;;15.00;10.32;;;7.90;99.90;;;;;;5050290;28;20108;-53
2023/03/30 03:58:18;;;;;;;17.40;10.82;;;7.90;99.90;;;;;;5038073;28;20021;-53
2023/03/30 04:00:44;;;;;;;13.75;9.48;;;7.90;99.90;;;;;;5031035;28;20045;-56
2023/03/30 04:03:11;;;;;;;14.25;10.02;;;7.90;99.90;;;;;;5047907;28;20496;-53
2023/03/30 04:05:36;;;;;;;14.65;9.65;;;7.90;99.90;;;;;;5036615;28;20049;-54
2023/03/30 04:08:03;;;;;;;15.73;10.10;;;7.90;99.90;;;;;;5035860;28;20055;-56
2023/03/30 04:10:28;;;;;;;14.93;10.38;;;7.90;99.90;;;;;;5043703;28;20028;-56
2023/03/30 04:12:55;;;;;;;14.70;9.40;;;8.00;99.90;;;;;;5033559;28;20025;-55
2023/03/30 04:15:22;;;;;;;14.57;8.63;;;7.90;99.90;;;;;;5049005;28;20087;-57
2023/03/30 04:17:56;;;;;;;16.23;11.00;;;7.90;99.90;;;;;;5033866;28;20033;-56
2023/03/30 04:20:23;;;;;;;15.98;10.73;;;8.00;99.90;;;;;;5050165;28;20025;-56
2023/03/30 04:22:49;;;;;;;17.55;11.40;;;8.00;99.90;;;;;;5033760;28;20025;-58
2023/03/30 04:25:14;;;;;;;18.48;11.82;;;8.00;99.90;;;;;;5049906;28;20032;-53
2023/03/30 04:27:43;;;;;;;19.17;10.02;;;8.00;99.90;;;;;;5032350;28;20448;-54
2023/03/30 04:30:10;;;;;;;13.77;9.45;;;8.00;99.90;;;;;;5050239;28;20020;-55
2023/03/30 04:32:37;;;;;;;14.88;10.18;;;8.00;99.90;;;;;;5028175;28;20044;-53
2023/03/30 04:35:07;;;;;;;20.33;11.65;;;8.00;99.90;;;;;;5030328;28;20508;-54
2023/03/30 04:37:34;;;;;;;15.10;10.45;;;8.00;99.90;;;;;;5011006;28;20030;-54
2023/03/30 04:40:00;;;;;;;16.30;10.02;;;8.00;99.90;;;;;;5029924;28;20021;-55
2023/03/30 04:42:33;;;;;;;14.88;10.07;;;8.00;99.90;;;;;;5047432;28;20032;-54
2023/03/30 04:44:59;;;;;;;14.98;9.73;;;8.00;99.90;;;;;;5049474;28;20132;-52
2023/03/30 04:47:26;;;;;;;14.70;8.95;;;8.00;99.90;;;;;;5030093;28;20029;-55
2023/03/30 04:49:51;;;;;;;13.48;9.07;;;8.00;99.90;;;;;;5049484;28;20544;-55
2023/03/30 04:52:18;;;;;;;12.25;9.52;;;8.10;99.90;;;;;;5027451;28;20144;-55
2023/03/30 04:54:44;;;;;;;19.83;11.77;;;8.10;99.90;;;;;;5030141;28;20705;-53
2023/03/30 04:57:10;;;;;;;18.48;11.93;;;8.10;99.90;;;;;;5048921;28;20048;-52
2023/03/30 04:59:36;;;;;;;18.70;10.93;;;8.10;99.90;;;;;;5028321;28;20026;-56
2023/03/30 05:02:02;;;;;;;15.38;10.30;;;8.10;99.90;;;;;;5048846;28;20040;-56
2023/03/30 05:04:28;;;;;;;15.95;9.88;;;8.10;99.90;;;;;;5027943;28;20037;-55
2023/03/30 05:06:56;;;;;;;15.32;9.82;;;8.10;99.90;;;;;;5044133;28;20489;-55
2023/03/30 05:09:22;;;;;;;14.20;9.35;;;8.10;99.90;;;;;;5027557;28;20108;-55
2023/03/30 05:11:47;;;;;;;12.95;8.25;;;8.10;99.90;;;;;;5048720;28;20028;-54
2023/03/30 05:14:13;;;;;;;14.05;9.00;;;8.20;99.90;;;;;;5028077;28;20083;-56
2023/03/30 05:16:39;;;;;;;10.73;7.50;;;8.20;99.90;;;;;;5048537;28;20067;-56
2023/03/30 05:19:04;;;;;;;12.38;7.72;;;8.20;99.90;;;;;;5028199;28;20389;-56
2023/03/30 05:21:30;;;;;;;14.32;8.55;;;8.30;99.90;;;;;;5029253;28;20040;-53
2023/03/30 05:23:56;;;;;;;12.88;8.40;;;8.30;99.90;;;;;;5047672;28;20676;-55
2023/03/30 05:26:22;;;;;;;12.25;7.68;;;8.30;99.90;;;;;;5027916;28;20517;-54
2023/03/30 05:28:48;;;;;;;10.75;7.55;;;8.30;99.90;;;;;;5048285;28;20021;-51
2023/03/30 05:31:14;;;;;;;13.63;9.07;;;8.30;99.90;;;;;;5030400;28;20068;-53
2023/03/30 05:33:39;;;;;;;14.25;9.23;;;8.40;99.90;;;;;;5048867;28;20083;-55
2023/03/30 05:36:05;;;;;;;16.10;8.63;;;8.40;99.90;;;;;;5027595;28;20026;-54
2023/03/30 05:38:31;;;;;;;13.18;8.95;;;8.40;99.90;;;;;;5047994;28;20131;-56
2023/03/30 05:40:57;;;;;;;10.63;7.55;;;8.50;99.90;;;;;;5027341;28;20029;-55
2023/03/30 05:43:22;;;;;;;12.55;8.57;;;8.60;99.90;;;;;;5048104;28;20078;-53
2023/03/30 05:45:48;;;;;;;12.85;8.50;;;8.70;99.90;;;;;;5027580;28;20510;-53
2023/03/30 05:48:13;;;;;;;12.70;8.23;;;8.90;99.90;;;;;;5047977;28;20032;-51
2023/03/30 05:50:39;;;;;;;15.75;8.60;;;9.10;99.90;;;;;;5037553;28;20043;-56
2023/03/30 05:53:05;;;;;;;12.25;8.27;;;9.40;99.90;;;;;;5029256;28;20029;-53
2023/03/30 05:55:30;;;;;;;15.20;8.77;;;9.40;99.90;;;;;;5037073;28;20057;-56
2023/03/30 05:57:55;;;;;;;12.95;7.82;;;9.40;99.90;;;;;;5047692;28;20040;-55
2023/03/30 06:00:21;;;;;;;9.50;7.43;;;9.30;99.90;;;;;;5033839;28;20025;-52
2023/03/30 06:02:47;;;;;;;10.75;7.07;;;9.20;99.90;;;;;;5029223;28;20363;-54
2023/03/30 06:05:13;;;;;;;12.70;8.00;;;9.10;99.90;;;;;;5035573;28;20033;-53
2023/03/30 06:07:38;;;;;;;11.90;7.45;;;9.10;99.90;;;;;;5029830;28;20552;-54
2023/03/30 06:10:06;;;;;;;13.52;8.00;;;9.00;99.90;;;;;;5045167;28;20033;-54
2023/03/30 06:12:32;;;;;;;10.45;7.00;;;8.90;99.90;;;;;;5045950;28;20059;-55
2023/03/30 06:15:01;;;;;;;11.30;7.45;;;8.90;99.90;;;;;;5040850;28;20622;-52
2023/03/30 06:17:27;;;;;;;9.65;7.40;;;8.80;99.90;;;;;;5025782;28;20493;-53
2023/03/30 06:19:53;;;;;;;10.48;6.95;;;8.80;99.90;;;;;;5027393;28;20553;-55
2023/03/30 06:22:20;;;;;;;8.63;6.78;;;8.80;99.90;;;;;;5034551;28;20076;-52
2023/03/30 06:24:46;;;;;;;10.65;7.05;;;8.80;99.90;;;;;;5047560;28;20076;-55
2023/03/30 06:27:11;;;;;;;12.00;7.15;;;8.70;99.90;;;;;;5036043;28;20043;-55
2023/03/30 06:29:37;;;;;;;12.60;6.85;;;8.80;99.90;;;;;;5028901;28;20516;-51
2023/03/30 06:32:02;;;;;;;9.18;6.45;;;8.90;99.90;;;;;;5035732;28;20038;-53
2023/03/30 06:34:28;;;;;;;9.35;6.55;;;8.80;99.90;;;;;;5047451;28;20025;-53
2023/03/30 06:36:53;;;;;;;8.68;6.35;;;8.90;99.90;;;;;;5032975;28;20025;-55
2023/03/30 06:39:20;;;;;;;8.10;6.32;;;9.00;99.90;;;;;;5031234;28;20029;-54
2023/03/30 06:41:46;;;;;;;7.75;5.93;;;9.00;99.90;;;;;;5051127;28;20032;-55
2023/03/30 06:44:13;;;;;;;9.63;6.57;;;9.10;99.90;;;;;;5030059;28;20171;-50
2023/03/30 06:46:39;;;;;;;9.52;6.05;;;9.20;99.90;;;;;;5051083;28;20499;-53
2023/03/30 06:49:05;;;;;;;10.75;5.95;;;9.50;99.90;;;;;;5030264;28;20084;-53
2023/03/30 06:51:32;;;;;;;8.70;5.40;;;9.80;99.90;;;;;;5050495;28;20075;-52
2023/03/30 06:53:58;;;;;;;7.78;5.80;;;9.90;99.90;;;;;;5030162;28;20021;-51
2023/03/30 06:56:23;;;;;;;8.65;5.30;;;9.80;99.90;;;;;;5050683;28;20047;-55
2023/03/30 06:58:50;;;;;;;9.27;5.28;;;9.80;99.90;;;;;;5030452;28;20232;-55
2023/03/30 07:01:16;;;;;;;8.65;4.75;;;9.80;99.90;;;;;;5050719;28;20028;-52
2023/03/30 07:03:41;;;;;;;9.30;5.28;;;9.90;99.90;;;;;;5030043;28;20037;-54
2023/03/30 07:06:08;;;;;;;8.00;5.68;;;9.90;99.90;;;;;;5047342;28;20025;-52
2023/03/30 07:08:34;;;;;;;6.47;4.95;;;9.90;99.90;;;;;;5029356;28;20017;-53
2023/03/30 07:11:00;;;;;;;9.18;4.35;;;9.90;99.90;;;;;;5050548;28;20078;-56
2023/03/30 07:13:26;;;;;;;7.22;4.85;;;9.80;99.90;;;;;;5029758;28;20029;-54
2023/03/30 07:15:52;;;;;;;7.72;4.25;;;9.90;99.90;;;;;;5050090;28;20119;-54
2023/03/30 07:18:18;;;;;;;8.63;5.57;;;9.90;99.90;;;;;;5029666;28;20049;-54
2023/03/30 07:20:44;;;;;;;7.10;4.82;;;9.90;99.90;;;;;;5050212;28;20036;-53
2023/03/30 07:23:10;;;;;;;8.98;4.80;;;10.00;99.90;;;;;;5039600;28;20153;-50
2023/03/30 07:25:36;;;;;;;6.55;4.72;;;10.10;99.90;;;;;;5031167;28;20433;-54
2023/03/30 07:28:05;;;;;;;5.80;4.03;;;10.20;99.90;;;;;;5048269;28;20078;-53
2023/03/30 07:30:31;;;;;;;5.97;4.10;;;10.40;99.90;;;;;;5030682;28;20520;-56
2023/03/30 07:32:57;;;;;;;8.93;4.00;;;10.70;99.90;;;;;;5047892;28;20045;-55
2023/03/30 07:35:22;;;;;;;6.50;4.25;;;11.40;99.90;;;;;;5031405;28;20136;-55
2023/03/30 07:37:48;;;;;;;6.63;3.97;;;12.60;99.90;;;;;;5047955;28;20029;-55
2023/03/30 07:40:14;;;;;;;6.22;3.80;;;13.80;96.30;;;;;;5050414;28;20040;-55
2023/03/30 07:42:40;;;;;;;5.85;3.45;;;14.60;93.20;;;;;;5035267;28;20037;-52
2023/03/30 07:45:06;;;;;;;5.53;3.58;;;14.90;83.70;;;;;;5050465;28;20029;-53
2023/03/30 07:47:31;;;;;;;5.03;3.42;;;15.00;84.20;;;;;;5031984;28;20067;-54
2023/03/30 07:49:57;;;;;;;5.88;3.38;;;15.50;85.70;;;;;;5050919;28;20428;-57
2023/03/30 07:52:22;;;;;;;5.75;3.42;;;15.80;77.50;;;;;;5032768;28;20024;-56
2023/03/30 07:54:48;;;;;;;4.97;3.25;;;16.30;68.70;;;;;;5050329;28;20033;-55
2023/03/30 07:57:13;;;;;;;7.93;3.90;;;16.50;68.10;;;;;;5031274;28;20606;-56
2023/03/30 07:59:39;;;;;;;6.05;3.22;;;16.60;60.00;;;;;;5050273;28;20037;-55
2023/03/30 08:02:05;;;;;;;5.30;2.97;;;17.00;66.40;;;;;;5030366;28;20429;-53
2023/03/30 08:04:31;;;;;;;6.40;2.78;;;17.50;66.60;;;;;;5048395;28;20052;-55
2023/03/30 08:06:57;;;;;;;6.97;3.17;;;17.80;61.90;;;;;;5025930;28;20057;-57
2023/03/30 08:09:22;;;;;;;4.30;3.10;;;18.10;67.60;;;;;;5049915;28;20024;-55
2023/03/30 08:11:49;;;;;;;4.63;2.72;;;18.50;69.40;;;;;;5030590;28;20108;-56
2023/03/30 08:14:14;;;;;;;3.38;2.20;;;18.70;67.10;;;;;;5026820;28;20028;-56
2023/03/30 08:16:40;;;;;;;2.83;2.20;;;19.00;70.50;;;;;;5049295;28;20033;-56
2023/03/30 08:19:05;;;;;;;3.28;2.60;;;19.20;60.70;;;;;;5028808;28;20146;-54
2023/03/30 08:21:31;;;;;;;3.95;2.72;;;19.10;60.60;;;;;;5048921;28;20059;-52
2023/03/30 08:23:57;;;;;;;5.65;2.80;;;19.20;57.10;;;;;;5028462;28;20037;-56
2023/03/30 08:26:27;;;;;;;3.80;2.33;;;19.10;54.00;;;;;;5049155;28;20431;-57
2023/03/30 08:28:53;;;;;;;3.88;2.50;;;19.00;53.20;;;;;;5027611;28;20112;-53
2023/03/30 08:31:19;;;;;;;4.22;2.33;;;18.70;49.20;;;;;;5044906;28;20125;-56
2023/03/30 08:33:45;;;;;;;3.28;2.13;;;18.60;53.60;;;;;;5043141;28;20056;-56
2023/03/30 08:36:11;;;;;;;2.60;1.88;;;18.50;52.20;;;;;;5029894;28;20592;-53
2023/03/30 08:38:38;;;;;;;2.35;1.90;;;18.40;51.70;;;;;;5031525;28;20029;-55
2023/03/30 08:41:28;;;;;;;5.13;2.63;;;18.50;52.70;;;;;;5048929;28;20021;-56
2023/03/30 08:44:00;;;;;;;5.20;2.40;;;18.70;44.90;;;;;;5024079;28;20028;-54
2023/03/30 08:46:26;;;;;;;3.83;2.10;;;18.80;49.30;;;;;;5049024;28;20029;-56
2023/03/30 08:48:53;;;;;;;4.50;2.45;;;18.90;44.10;;;;;;5027569;28;20173;-55
2023/03/30 08:51:30;;;;;;;3.58;2.17;;;19.00;46.70;;;;;;5048966;28;20029;-54
2023/03/30 08:54:00;;;;;;;2.88;2.13;;;19.10;50.00;;;;;;5027571;28;20379;-53
2023/03/30 08:56:40;;;;;;;4.18;2.42;;;19.30;51.80;;;;;;5048903;28;20029;-55
2023/03/30 08:59:43;;;;;;;4.53;2.30;;;19.40;42.60;;;;;;5024826;28;20025;-55
2023/03/30 09:02:34;;;;;;;5.38;2.67;;;19.50;37.30;;;;;;5046788;28;20448;-61
2023/03/30 09:05:20;;;;;;;3.60;2.10;;;19.60;42.00;;;;;;5040271;28;20049;-70
2023/03/30 09:08:36;;;;;;;4.32;2.08;;;19.80;46.20;;;;;;5046290;28;20049;-70
2023/03/30 09:11:10;;;;;;;2.88;1.80;;;20.00;35.60;;;;;;5008881;28;20521;-71
2023/03/30 09:13:38;;;;;;;2.78;1.90;;;20.10;41.30;;;;;;5021059;28;20057;-69
2023/03/30 09:16:32;;;;;;;3.72;2.08;;;20.20;42.00;;;;;;5048461;28;20029;-70
2023/03/30 09:19:00;;;;;;;5.20;2.35;;;20.30;36.10;;;;;;5024193;28;20017;-70
2023/03/30 09:21:30;;;;;;;2.88;1.73;;;20.50;36.60;;;;;;5048529;28;20047;-69
2023/03/30 09:23:59;;;;;;;3.28;2.00;;;20.40;33.30;;;;;;5026782;28;20048;-70
2023/03/30 09:26:40;;;;;;;4.22;2.20;;;20.50;32.50;;;;;;5048345;28;20037;-69
2023/03/30 09:29:16;;;;;;;4.00;1.80;;;20.40;30.60;;;;;;5025338;28;20060;-70
2023/03/30 09:31:57;;;;;;;3.25;1.90;;;20.40;33.20;;;;;;5041382;28;20037;-70
2023/03/30 09:34:28;;;;;;;2.72;1.92;;;20.60;31.20;;;;;;5008994;28;20335;-69
2023/03/30 09:37:03;;;;;;;3.97;1.77;;;20.70;32.80;;;;;;5046934;28;20025;-70
2023/03/30 09:39:30;;;;;;;4.57;2.17;;;20.80;30.50;;;;;;5048569;28;20071;-69
2023/03/30 09:42:13;;;;;;;3.85;1.95;;;20.80;30.80;;;;;;5026967;28;20276;-68
2023/03/30 09:44:47;;;;;;;8.32;2.67;;;20.70;28.80;;;;;;5048713;28;20086;-68
2023/03/30 09:47:25;;;;;;;2.55;1.55;;;20.30;29.00;;;;;;5011599;28;20096;-69
2023/03/30 09:50:01;;;;;;;6.97;2.33;;;20.30;29.70;;;;;;5048531;28;20325;-69
2023/03/30 09:52:30;;;;;;;4.13;2.00;;;20.20;30.00;;;;;;5015396;28;20035;-68
2023/03/30 09:55:01;;;;;;;4.80;1.85;;;20.10;30.00;;;;;;5048548;28;20534;-69
2023/03/30 09:57:31;;;;;;;7.88;1.90;;;20.20;30.30;;;;;;5015560;28;20021;-68
2023/03/30 09:59:59;;;;;;;3.65;2.28;;;20.10;30.20;;;;;;5048358;28;20036;-69
2023/03/30 10:02:27;;;;;;;4.28;2.13;;;20.10;29.70;;;;;;5030774;28;20029;-69
2023/03/30 10:04:55;;;;;;;4.88;2.00;;;20.00;30.50;;;;;;5040327;28;20021;-69
2023/03/30 10:07:25;;;;;;;4.68;2.30;;;20.00;30.60;;;;;;5029779;28;20058;-69
2023/03/30 10:09:51;;;;;;;3.88;1.98;;;20.00;30.50;;;;;;5048483;28;20029;-69
2023/03/30 10:12:17;;;;;;;3.60;2.03;;;19.80;30.70;;;;;;5033849;28;20039;-69
2023/03/30 10:14:43;;;;;;;5.55;1.98;;;19.80;30.40;;;;;;5052175;28;20075;-69
2023/03/30 10:17:18;;;;;;;3.97;1.83;;;19.70;31.20;;;;;;5032550;28;20039;-69
2023/03/30 10:19:44;;;;;;;6.88;1.98;;;19.80;31.20;;;;;;5052188;28;20021;-69
2023/03/30 10:22:17;;;;;;;6.03;2.15;;;19.70;31.20;;;;;;5032675;28;20489;-69
2023/03/30 10:24:55;;;;;;;3.17;2.08;;;19.70;31.50;;;;;;5052001;28;20061;-69
2023/03/30 10:27:32;;;;;;;3.28;1.63;;;19.60;31.80;;;;;;5033873;28;20029;-69
2023/03/30 10:30:08;;;;;;;5.55;2.25;;;19.60;31.60;;;;;;5051964;28;20028;-69
2023/03/30 10:32:34;;;;;;;;;;;19.30;32.00;;;;;;5021014;28;20515;-69
2023/03/30 10:35:03;;;;;;;4.03;1.73;;;19.20;33.20;;;;;;5051919;28;19995;-69
2023/03/30 10:37:37;;;;;;;5.18;2.28;;;19.20;33.30;;;;;;5034435;28;20128;-68
2023/03/30 10:40:14;;;;;;;6.60;2.03;;;19.00;33.30;;;;;;5051759;28;20017;-69
2023/03/30 10:42:40;;;;;;;6.00;2.13;;;18.70;34.00;;;;;;5022335;28;20021;-69
2023/03/30 10:45:06;;;;;;;4.88;2.17;;;18.40;34.80;;;;;;5051694;28;20025;-69
2023/03/30 10:47:49;;;;;;;9.32;2.67;;;18.30;35.80;;;;;;5035148;28;20028;-69
2023/03/30 10:50:23;;;;;;;6.60;2.25;;;18.10;37.00;;;;;;5051516;28;20385;-69
2023/03/30 10:53:25;;;;;;;7.25;3.13;;;18.00;37.70;;;;;;5024446;28;20047;-69
2023/03/30 10:56:16;;;;;;;6.60;3.13;;;17.90;39.10;;;;;;5011721;28;20038;-68
2023/03/30 10:59:00;;;;;;;7.15;3.03;;;17.80;39.80;;;;;;5034534;28;20030;-68
2023/03/30 11:01:41;;;;;;;7.47;2.58;;;17.80;40.70;;;;;;5050482;28;20033;-68
2023/03/30 11:04:21;;;;;;;4.70;2.47;;;17.70;41.30;;;;;;5027781;28;20037;-68
2023/03/30 11:06:51;;;;;;;6.05;2.10;;;17.70;40.70;;;;;;5005085;28;20030;-69
2023/03/30 11:09:23;;;;;;;3.88;2.33;;;17.70;40.90;;;;;;5029886;28;20072;-69
2023/03/30 11:11:53;;;;;;;6.25;2.53;;;17.70;41.50;;;;;;5011495;28;20042;-68
2023/03/30 11:14:29;;;;;;;6.70;2.20;;;17.90;42.00;;;;;;5051022;28;20108;-69
2023/03/30 11:17:07;;;;;;;4.13;2.05;;;18.00;42.00;;;;;;5009554;28;20038;-68
2023/03/30 11:19:46;;;;;;;6.63;2.67;;;18.20;42.60;;;;;;5050719;28;20032;-68
2023/03/30 11:22:30;;;;;;;5.68;2.17;;;18.30;42.10;;;;;;5013102;28;20361;-69
2023/03/30 11:24:56;;;;;;;3.70;2.08;;;18.40;42.10;;;;;;5050633;28;20040;-70
2023/03/30 11:27:34;;;;;;;5.05;1.98;;;18.50;42.20;;;;;;5033172;28;20412;-68
2023/03/30 11:30:11;;;;;;;6.63;1.98;;;18.50;42.20;;;;;;5050858;28;20040;-70
2023/03/30 11:33:17;;;;;;;4.20;2.00;;;18.60;42.60;;;;;;5020654;28;20041;-69
2023/03/30 11:35:46;;;;;;;4.45;2.03;;;18.70;42.70;;;;;;5027934;28;20567;-69
2023/03/30 11:38:22;;;;;;;5.35;2.42;;;18.70;42.20;;;;;;5041194;28;20041;-70
2023/03/30 11:40:52;;;;;;;3.53;1.83;;;18.60;42.30;;;;;;5011065;28;20052;-69
2023/03/30 11:43:21;;;;;;;4.88;2.03;;;18.60;42.40;;;;;;5037020;28;20040;-69
2023/03/30 11:46:09;;;;;;;6.00;2.17;;;18.40;43.00;;;;;;5050361;28;20036;-69
2023/03/30 11:49:11;;;;;;;4.15;1.90;;;18.30;44.00;;;;;;5028538;28;20355;-69
2023/03/30 11:52:15;;;;;;;2.67;1.70;;;18.30;44.70;;;;;;5010636;28;20030;-69
2023/03/30 11:54:57;;;;;;;4.20;2.88;;;18.30;45.50;;;;;;5011166;28;20061;-68
2023/03/30 11:57:22;;;;;;;5.28;2.15;;;18.20;45.40;;;;;;5016306;28;20521;-68
2023/03/30 12:00:26;;;;;;;6.90;2.75;;;18.20;45.60;;;;;;5049548;28;20025;-69
2023/03/30 12:03:16;;;;;;;7.78;2.25;;;18.20;46.90;;;;;;5035679;28;20013;-69
2023/03/30 12:05:52;;;;;;;4.80;1.80;;;18.30;47.20;;;;;;5036511;28;20103;-69
2023/03/30 12:08:23;;;;;;;7.50;2.67;;;18.40;46.60;;;;;;5031801;28;20033;-70
2023/03/30 12:10:59;;;;;;;5.97;2.20;;;18.40;47.00;;;;;;5038371;28;20064;-70
2023/03/30 12:13:27;;;;;;;11.27;2.28;;;18.40;47.30;;;;;;5010881;28;20081;-68
2023/03/30 12:16:01;;;;;;;8.88;2.72;;;18.40;46.60;;;;;;5035750;28;20029;-69
2023/03/30 12:18:38;;;;;;;9.00;2.17;;;18.30;47.20;;;;;;5010710;28;20030;-69
2023/03/30 12:21:27;;;;;;;7.05;2.30;;;18.30;48.30;;;;;;5022122;28;20038;-69
2023/03/30 12:24:00;;;;;;;5.25;2.40;;;18.10;49.10;;;;;;5010328;28;20073;-70
2023/03/30 12:26:28;;;;;;;4.82;1.85;;;18.10;48.50;;;;;;5023790;28;20041;-68
2023/03/30 12:29:08;;;;;;;9.25;2.53;;;18.00;50.00;;;;;;5048258;28;20091;-69
2023/03/30 12:31:51;;;;;;;4.25;2.17;;;18.00;50.30;;;;;;5017779;28;20052;-69
2023/03/30 12:34:18;;;;;;;7.95;2.80;;;18.00;51.60;;;;;;5026439;28;20111;-69
2023/03/30 12:36:52;;;;;;;5.20;2.10;;;18.10;50.90;;;;;;5038623;28;20029;-70
2023/03/30 12:39:43;;;;;;;4.90;1.88;;;18.10;50.40;;;;;;5008111;28;20040;-69
2023/03/30 12:42:25;;;;;;;5.47;2.45;;;18.10;52.00;;;;;;5020174;28;20041;-69
2023/03/30 12:45:29;;;;;;;4.70;1.95;;;18.20;51.60;;;;;;5021952;28;20048;-68
2023/03/30 12:48:15;;;;;;;5.47;2.55;;;18.20;52.50;;;;;;5019129;28;20105;-68
2023/03/30 12:51:06;;;;;;;4.38;2.30;;;18.20;51.90;;;;;;5008917;28;20025;-68
2023/03/30 12:53:56;;;;;;;6.78;2.50;;;18.20;52.60;;;;;;5045699;28;20107;-69
2023/03/30 12:56:36;;;;;;;8.95;2.08;;;18.30;52.30;;;;;;5013216;28;20071;-67
2023/03/30 12:59:31;;;;;;;5.95;2.05;;;18.40;52.20;;;;;;5007865;28;20718;-69
2023/03/30 13:02:18;;;;;;;4.03;1.70;;;18.50;51.60;;;;;;5028126;28;20040;-68
2023/03/30 13:04:47;;;;;;;8.13;2.10;;;18.50;51.40;;;;;;5024301;28;20041;-68
2023/03/30 13:07:16;;;;;;;7.00;2.30;;;18.50;51.20;;;;;;5030331;28;20033;-69
2023/03/30 13:09:58;;;;;;;4.13;2.28;;;18.50;50.40;;;;;;5048167;28;20021;-69
2023/03/30 13:12:29;;;;;;;6.88;2.60;;;18.60;50.50;;;;;;5031106;28;20074;-69